sensor_id;sensor_type;location;lat;lon;timestamp;P1;durP1;ratioP1;P2;durP2;ratioP2
3979;SDS011;2004;52.452;13.120;2023-04-07T00:06:43;10.30;;;6.80;;
3979;SDS011;2004;52.452;13.120;2023-04-07T00:14:34;9.07;;;6.10;;
3979;SDS011;2004;52.452;13.120;2023-04-07T00:22:24;11.03;;;5.87;;
3979;SDS011;2004;52.452;13.120;2023-04-07T00:30:15;19.80;;;7.73;;
3979;SDS011;2004;52.452;13.120;2023-04-07T00:38:06;15.97;;;8.40;;
3979;SDS011;2004;52.452;13.120;2023-04-07T00:45:57;15.73;;;9.00;;
3979;SDS011;2004;52.452;13.120;2023-04-07T00:53:48;12.77;;;7.47;;
3979;SDS011;2004;52.452;13.120;2023-04-07T01:09:37;15.70;;;7.17;;
3979;SDS011;2004;52.452;13.120;2023-04-07T01:17:32;16.27;;;8.23;;
3979;SDS011;2004;52.452;13.120;2023-04-07T01:49:03;8.83;;;6.07;;
3979;SDS011;2004;52.452;13.120;2023-04-07T01:56:54;12.13;;;5.60;;
3979;SDS011;2004;52.452;13.120;2023-04-07T02:04:55;7.40;;;6.00;;
3979;SDS011;2004;52.452;13.120;2023-04-07T02:12:49;8.90;;;5.37;;
3979;SDS011;2004;52.452;13.120;2023-04-07T02:20:44;9.20;;;6.17;;
3979;SDS011;2004;52.452;13.120;2023-04-07T02:28:37;11.30;;;6.17;;
3979;SDS011;2004;52.452;13.120;2023-04-07T02:36:28;9.57;;;5.30;;
3979;SDS011;2004;52.452;13.120;2023-04-07T02:44:20;7.13;;;5.60;;
3979;SDS011;2004;52.452;13.120;2023-04-07T02:52:11;6.53;;;5.17;;
3979;SDS011;2004;52.452;13.120;2023-04-07T03:00:01;6.53;;;4.80;;
3979;SDS011;2004;52.452;13.120;2023-04-07T03:07:52;8.20;;;6.30;;
3979;SDS011;2004;52.452;13.120;2023-04-07T03:15:42;9.73;;;5.60;;
3979;SDS011;2004;52.452;13.120;2023-04-07T03:23:34;11.40;;;5.80;;
3979;SDS011;2004;52.452;13.120;2023-04-07T03:31:24;6.07;;;5.00;;
3979;SDS011;2004;52.452;13.120;2023-04-07T03:39:15;12.50;;;5.90;;
3979;SDS011;2004;52.452;13.120;2023-04-07T03:47:08;9.00;;;4.90;;
3979;SDS011;2004;52.452;13.120;2023-04-07T03:54:59;12.97;;;6.03;;
3979;SDS011;2004;52.452;13.120;2023-04-07T04:02:50;8.00;;;5.40;;
3979;SDS011;2004;52.452;13.120;2023-04-07T04:10:41;10.83;;;6.10;;
3979;SDS011;2004;52.452;13.120;2023-04-07T04:18:31;6.93;;;5.17;;
3979;SDS011;2004;52.452;13.120;2023-04-07T04:26:22;11.87;;;6.53;;
3979;SDS011;2004;52.452;13.120;2023-04-07T04:34:15;8.67;;;5.70;;
3979;SDS011;2004;52.452;13.120;2023-04-07T04:42:06;8.50;;;5.30;;
3979;SDS011;2004;52.452;13.120;2023-04-07T04:49:57;10.90;;;6.67;;
3979;SDS011;2004;52.452;13.120;2023-04-07T04:57:49;9.17;;;6.20;;
3979;SDS011;2004;52.452;13.120;2023-04-07T05:05:39;14.63;;;8.57;;
3979;SDS011;2004;52.452;13.120;2023-04-07T05:13:30;13.17;;;9.33;;
3979;SDS011;2004;52.452;13.120;2023-04-07T05:21:22;8.90;;;7.47;;
3979;SDS011;2004;52.452;13.120;2023-04-07T05:29:12;17.27;;;9.23;;
3979;SDS011;2004;52.452;13.120;2023-04-07T05:37:03;14.07;;;6.93;;
3979;SDS011;2004;52.452;13.120;2023-04-07T05:44:54;11.97;;;7.47;;
3979;SDS011;2004;52.452;13.120;2023-04-07T05:52:45;13.83;;;7.80;;
3979;SDS011;2004;52.452;13.120;2023-04-07T06:00:35;15.07;;;8.23;;
3979;SDS011;2004;52.452;13.120;2023-04-07T06:08:27;10.20;;;7.30;;
3979;SDS011;2004;52.452;13.120;2023-04-07T06:16:18;15.13;;;8.23;;
3979;SDS011;2004;52.452;13.120;2023-04-07T06:24:08;16.40;;;8.10;;
3979;SDS011;2004;52.452;13.120;2023-04-07T06:31:59;15.33;;;8.77;;
3979;SDS011;2004;52.452;13.120;2023-04-07T06:39:52;13.03;;;8.27;;
3979;SDS011;2004;52.452;13.120;2023-04-07T06:47:43;12.60;;;7.70;;
3979;SDS011;2004;52.452;13.120;2023-04-07T06:55:33;13.70;;;8.40;;
3979;SDS011;2004;52.452;13.120;2023-04-07T07:03:24;15.20;;;8.07;;
3979;SDS011;2004;52.452;13.120;2023-04-07T07:11:16;15.30;;;8.97;;
3979;SDS011;2004;52.452;13.120;2023-04-07T07:19:07;12.63;;;8.37;;
3979;SDS011;2004;52.452;13.120;2023-04-07T07:26:59;13.03;;;8.77;;
3979;SDS011;2004;52.452;13.120;2023-04-07T07:34:51;14.23;;;9.30;;
3979;SDS011;2004;52.452;13.120;2023-04-07T07:42:42;15.80;;;9.03;;
3979;SDS011;2004;52.452;13.120;2023-04-07T07:50:33;9.23;;;6.90;;
3979;SDS011;2004;52.452;13.120;2023-04-07T07:58:23;11.47;;;5.00;;
3979;SDS011;2004;52.452;13.120;2023-04-07T08:06:14;10.37;;;5.77;;
3979;SDS011;2004;52.452;13.120;2023-04-07T08:14:05;13.63;;;5.87;;
3979;SDS011;2004;52.452;13.120;2023-04-07T08:21:56;11.10;;;5.63;;
3979;SDS011;2004;52.452;13.120;2023-04-07T08:30:05;18.53;;;8.20;;
3979;SDS011;2004;52.452;13.120;2023-04-07T08:37:56;6.70;;;4.20;;
3979;SDS011;2004;52.452;13.120;2023-04-07T08:45:47;6.10;;;3.90;;
3979;SDS011;2004;52.452;13.120;2023-04-07T08:53:40;9.10;;;4.37;;
3979;SDS011;2004;52.452;13.120;2023-04-07T09:01:34;5.97;;;3.33;;
3979;SDS011;2004;52.452;13.120;2023-04-07T09:09:25;7.70;;;3.67;;
3979;SDS011;2004;52.452;13.120;2023-04-07T09:17:16;8.40;;;3.43;;
3979;SDS011;2004;52.452;13.120;2023-04-07T09:25:16;10.80;;;2.57;;
3979;SDS011;2004;52.452;13.120;2023-04-07T09:33:25;3.53;;;2.47;;
3979;SDS011;2004;52.452;13.120;2023-04-07T09:41:17;4.70;;;2.50;;
3979;SDS011;2004;52.452;13.120;2023-04-07T09:49:08;5.90;;;3.70;;
3979;SDS011;2004;52.452;13.120;2023-04-07T09:56:59;7.47;;;3.40;;
3979;SDS011;2004;52.452;13.120;2023-04-07T10:04:51;8.43;;;3.63;;
3979;SDS011;2004;52.452;13.120;2023-04-07T10:12:42;4.90;;;3.40;;
3979;SDS011;2004;52.452;13.120;2023-04-07T10:20:33;6.47;;;3.67;;
3979;SDS011;2004;52.452;13.120;2023-04-07T10:28:26;3.53;;;2.30;;
3979;SDS011;2004;52.452;13.120;2023-04-07T10:36:20;7.10;;;2.60;;
3979;SDS011;2004;52.452;13.120;2023-04-07T10:52:42;4.90;;;2.57;;
3979;SDS011;2004;52.452;13.120;2023-04-07T11:00:36;2.90;;;2.43;;
3979;SDS011;2004;52.452;13.120;2023-04-07T11:08:33;4.67;;;1.70;;
3979;SDS011;2004;52.452;13.120;2023-04-07T11:16:33;2.13;;;1.90;;
3979;SDS011;2004;52.452;13.120;2023-04-07T11:24:31;5.00;;;2.70;;
3979;SDS011;2004;52.452;13.120;2023-04-07T11:32:23;3.27;;;2.97;;
3979;SDS011;2004;52.452;13.120;2023-04-07T11:40:32;4.57;;;3.00;;
3979;SDS011;2004;52.452;13.120;2023-04-07T11:48:27;4.90;;;2.83;;
3979;SDS011;2004;52.452;13.120;2023-04-07T11:56:19;4.70;;;3.57;;
3979;SDS011;2004;52.452;13.120;2023-04-07T12:04:12;4.53;;;3.30;;
3979;SDS011;2004;52.452;13.120;2023-04-07T12:12:06;3.90;;;3.17;;
3979;SDS011;2004;52.452;13.120;2023-04-07T12:19:59;6.17;;;4.50;;
3979;SDS011;2004;52.452;13.120;2023-04-07T12:27:49;10.63;;;5.00;;
3979;SDS011;2004;52.452;13.120;2023-04-07T12:35:40;11.43;;;5.93;;
3979;SDS011;2004;52.452;13.120;2023-04-07T12:43:31;7.40;;;5.60;;
3979;SDS011;2004;52.452;13.120;2023-04-07T12:51:21;5.03;;;4.40;;
3979;SDS011;2004;52.452;13.120;2023-04-07T12:59:15;5.37;;;4.17;;
3979;SDS011;2004;52.452;13.120;2023-04-07T13:07:05;5.10;;;4.00;;
3979;SDS011;2004;52.452;13.120;2023-04-07T13:14:57;4.37;;;3.97;;
3979;SDS011;2004;52.452;13.120;2023-04-07T13:22:47;3.47;;;3.17;;
3979;SDS011;2004;52.452;13.120;2023-04-07T13:30:38;3.87;;;3.47;;
3979;SDS011;2004;52.452;13.120;2023-04-07T13:38:28;2.70;;;2.50;;
3979;SDS011;2004;52.452;13.120;2023-04-07T13:46:19;1.87;;;1.77;;
3979;SDS011;2004;52.452;13.120;2023-04-07T13:54:10;4.43;;;2.90;;
3979;SDS011;2004;52.452;13.120;2023-04-07T14:02:00;2.90;;;2.70;;
3979;SDS011;2004;52.452;13.120;2023-04-07T14:09:51;4.17;;;3.23;;
3979;SDS011;2004;52.452;13.120;2023-04-07T14:17:43;4.97;;;2.73;;
3979;SDS011;2004;52.452;13.120;2023-04-07T14:25:34;3.00;;;2.80;;
3979;SDS011;2004;52.452;13.120;2023-04-07T14:33:25;4.03;;;2.73;;
3979;SDS011;2004;52.452;13.120;2023-04-07T14:41:15;6.13;;;3.70;;
3979;SDS011;2004;52.452;13.120;2023-04-07T14:49:07;4.63;;;3.60;;
3979;SDS011;2004;52.452;13.120;2023-04-07T14:56:58;5.83;;;4.63;;
3979;SDS011;2004;52.452;13.120;2023-04-07T15:04:48;5.60;;;3.37;;
3979;SDS011;2004;52.452;13.120;2023-04-07T15:12:39;10.70;;;5.07;;
3979;SDS011;2004;52.452;13.120;2023-04-07T15:20:29;7.43;;;4.53;;
3979;SDS011;2004;52.452;13.120;2023-04-07T15:28:20;8.37;;;5.20;;
3979;SDS011;2004;52.452;13.120;2023-04-07T15:36:11;5.10;;;4.23;;
3979;SDS011;2004;52.452;13.120;2023-04-07T15:44:03;4.47;;;3.43;;
3979;SDS011;2004;52.452;13.120;2023-04-07T15:51:55;6.40;;;4.10;;
3979;SDS011;2004;52.452;13.120;2023-04-07T15:59:45;3.77;;;3.43;;
3979;SDS011;2004;52.452;13.120;2023-04-07T16:07:36;5.20;;;3.70;;
3979;SDS011;2004;52.452;13.120;2023-04-07T16:15:27;5.03;;;3.90;;
3979;SDS011;2004;52.452;13.120;2023-04-07T16:23:17;4.83;;;4.20;;
3979;SDS011;2004;52.452;13.120;2023-04-07T16:31:08;6.20;;;3.83;;
3979;SDS011;2004;52.452;13.120;2023-04-07T16:39:00;13.10;;;4.30;;
3979;SDS011;2004;52.452;13.120;2023-04-07T16:46:51;8.60;;;4.00;;
3979;SDS011;2004;52.452;13.120;2023-04-07T16:54:42;4.17;;;3.50;;
3979;SDS011;2004;52.452;13.120;2023-04-07T17:02:32;5.50;;;3.90;;
3979;SDS011;2004;52.452;13.120;2023-04-07T17:10:23;4.80;;;3.37;;
3979;SDS011;2004;52.452;13.120;2023-04-07T17:18:14;4.90;;;3.83;;
3979;SDS011;2004;52.452;13.120;2023-04-07T17:26:04;4.87;;;3.70;;
3979;SDS011;2004;52.452;13.120;2023-04-07T17:33:55;3.63;;;3.30;;
3979;SDS011;2004;52.452;13.120;2023-04-07T17:41:45;4.33;;;3.40;;
3979;SDS011;2004;52.452;13.120;2023-04-07T17:49:36;4.30;;;3.33;;
3979;SDS011;2004;52.452;13.120;2023-04-07T17:57:27;5.40;;;4.53;;
3979;SDS011;2004;52.452;13.120;2023-04-07T18:05:19;6.63;;;5.23;;
3979;SDS011;2004;52.452;13.120;2023-04-07T18:13:10;10.23;;;6.73;;
3979;SDS011;2004;52.452;13.120;2023-04-07T18:21:00;6.13;;;4.90;;
3979;SDS011;2004;52.452;13.120;2023-04-07T18:28:51;6.27;;;5.07;;
3979;SDS011;2004;52.452;13.120;2023-04-07T18:36:41;5.80;;;5.17;;
3979;SDS011;2004;52.452;13.120;2023-04-07T18:44:33;7.60;;;5.97;;
3979;SDS011;2004;52.452;13.120;2023-04-07T18:52:24;6.40;;;5.10;;
3979;SDS011;2004;52.452;13.120;2023-04-07T19:00:15;5.87;;;5.27;;
3979;SDS011;2004;52.452;13.120;2023-04-07T19:08:06;6.70;;;5.17;;
3979;SDS011;2004;52.452;13.120;2023-04-07T19:15:57;6.00;;;5.40;;
3979;SDS011;2004;52.452;13.120;2023-04-07T19:23:48;6.37;;;5.73;;
3979;SDS011;2004;52.452;13.120;2023-04-07T19:31:38;9.33;;;7.33;;
3979;SDS011;2004;52.452;13.120;2023-04-07T19:39:29;8.47;;;5.97;;
3979;SDS011;2004;52.452;13.120;2023-04-07T19:47:19;8.87;;;6.47;;
3979;SDS011;2004;52.452;13.120;2023-04-07T19:55:10;8.73;;;6.27;;
3979;SDS011;2004;52.452;13.120;2023-04-07T20:03:05;7.43;;;6.13;;
3979;SDS011;2004;52.452;13.120;2023-04-07T20:10:55;9.90;;;6.10;;
3979;SDS011;2004;52.452;13.120;2023-04-07T20:18:46;8.57;;;5.60;;
3979;SDS011;2004;52.452;13.120;2023-04-07T20:26:38;8.30;;;6.17;;
3979;SDS011;2004;52.452;13.120;2023-04-07T20:34:28;6.97;;;5.50;;
3979;SDS011;2004;52.452;13.120;2023-04-07T20:42:19;7.00;;;5.70;;
3979;SDS011;2004;52.452;13.120;2023-04-07T20:50:09;9.73;;;6.13;;
3979;SDS011;2004;52.452;13.120;2023-04-07T20:58:01;11.40;;;7.20;;
3979;SDS011;2004;52.452;13.120;2023-04-07T21:05:52;12.43;;;7.70;;
3979;SDS011;2004;52.452;13.120;2023-04-07T21:13:44;12.67;;;7.97;;
3979;SDS011;2004;52.452;13.120;2023-04-07T21:21:34;13.90;;;7.60;;
3979;SDS011;2004;52.452;13.120;2023-04-07T21:29:27;13.27;;;8.83;;
3979;SDS011;2004;52.452;13.120;2023-04-07T21:37:19;14.53;;;9.60;;
3979;SDS011;2004;52.452;13.120;2023-04-07T21:45:12;14.70;;;9.27;;
3979;SDS011;2004;52.452;13.120;2023-04-07T21:53:03;14.67;;;9.30;;
3979;SDS011;2004;52.452;13.120;2023-04-07T22:00:54;21.17;;;10.67;;
3979;SDS011;2004;52.452;13.120;2023-04-07T22:08:44;14.00;;;9.17;;
3979;SDS011;2004;52.452;13.120;2023-04-07T22:16:35;16.90;;;9.10;;
3979;SDS011;2004;52.452;13.120;2023-04-07T22:24:26;16.20;;;9.53;;
3979;SDS011;2004;52.452;13.120;2023-04-07T22:32:16;14.20;;;9.10;;
3979;SDS011;2004;52.452;13.120;2023-04-07T22:40:07;14.47;;;10.10;;
3979;SDS011;2004;52.452;13.120;2023-04-07T22:47:58;16.57;;;9.73;;
3979;SDS011;2004;52.452;13.120;2023-04-07T22:55:49;16.60;;;9.07;;
3979;SDS011;2004;52.452;13.120;2023-04-07T23:03:41;19.13;;;13.30;;
3979;SDS011;2004;52.452;13.120;2023-04-07T23:11:32;15.47;;;10.27;;
3979;SDS011;2004;52.452;13.120;2023-04-07T23:19:22;19.63;;;10.10;;
3979;SDS011;2004;52.452;13.120;2023-04-07T23:27:13;19.40;;;10.07;;
3979;SDS011;2004;52.452;13.120;2023-04-07T23:35:03;14.87;;;9.33;;
3979;SDS011;2004;52.452;13.120;2023-04-07T23:42:55;17.20;;;9.37;;
3979;SDS011;2004;52.452;13.120;2023-04-07T23:50:47;13.50;;;9.67;;
3979;SDS011;2004;52.452;13.120;2023-04-07T23:58:39;13.20;;;10.13;;
